createdAt,value
2017-08-23T00:07:01.960Z,0
2017-08-23T00:17:16.233Z,0
2017-08-23T00:27:29.971Z,0
2017-08-23T00:37:45.402Z,0
2017-08-23T00:47:59.335Z,0
2017-08-23T00:58:13.189Z,0
2017-08-23T01:08:27.329Z,0
2017-08-23T01:18:41.095Z,0
2017-08-23T01:28:55.836Z,0
2017-08-23T01:39:10.102Z,0
2017-08-23T01:49:24.166Z,0
2017-08-23T01:59:39.142Z,0
2017-08-23T02:09:54.402Z,0
2017-08-23T02:20:10.082Z,0
2017-08-23T02:30:23.923Z,0
2017-08-23T02:40:38.231Z,0
2017-08-23T02:50:52.052Z,0
2017-08-23T03:01:06.581Z,0
2017-08-23T03:11:22.057Z,0
2017-08-23T03:21:36.788Z,0
2017-08-23T03:31:51.872Z,0
2017-08-23T03:42:06.936Z,0
2017-08-23T03:52:20.980Z,0
2017-08-23T04:02:35.033Z,0
2017-08-23T04:12:49.074Z,0
2017-08-23T04:23:03.865Z,5
2017-08-23T04:33:19.207Z,20
2017-08-23T04:43:32.984Z,45
2017-08-23T04:53:47.926Z,70
2017-08-23T05:04:02.314Z,105
2017-08-23T05:14:17.476Z,135
2017-08-23T05:24:31.679Z,160
2017-08-23T05:34:47.138Z,185
2017-08-23T05:45:01.973Z,210
2017-08-23T05:55:16.600Z,240
2017-08-23T06:05:32.064Z,265
2017-08-23T06:15:46.313Z,290
2017-08-23T06:26:00.270Z,300
2017-08-23T06:36:15.328Z,305
2017-08-23T06:46:30.757Z,305
2017-08-23T06:56:45.737Z,310
2017-08-23T07:07:00.380Z,325
2017-08-23T07:17:14.943Z,390
2017-08-23T07:27:30.711Z,810
2017-08-23T07:37:44.532Z,865
2017-08-23T07:47:59.022Z,985
2017-08-23T07:58:13.220Z,1020
2017-08-23T08:08:28.213Z,1105
2017-08-23T08:18:43.808Z,1145
2017-08-23T08:28:58.754Z,1275
2017-08-23T08:39:13.543Z,1385
2017-08-23T08:49:28.164Z,1405
2017-08-23T08:59:42.720Z,1105
2017-08-23T09:09:57.633Z,1530
2017-08-23T09:20:13.491Z,1560
2017-08-23T09:30:28.445Z,1640
2017-08-23T09:40:43.402Z,1490
2017-08-23T09:50:57.321Z,1565
2017-08-23T10:01:11.712Z,1550
2017-08-23T10:11:26.815Z,1465
2017-08-23T10:21:41.233Z,1770
2017-08-23T10:31:56.449Z,1730
2017-08-23T10:42:10.863Z,1750
2017-08-23T10:52:26.062Z,1620
2017-08-23T11:02:40.534Z,1495
2017-08-23T11:12:54.967Z,1335
2017-08-23T11:23:08.998Z,1090
2017-08-23T11:33:24.475Z,1055
2017-08-23T11:43:38.764Z,1925
2017-08-23T11:53:52.759Z,2030
2017-08-23T12:04:08.264Z,1940
2017-08-23T12:14:24.134Z,1885
2017-08-23T12:24:38.940Z,2365
2017-08-23T12:34:53.398Z,1845
2017-08-23T12:45:09.244Z,1175
2017-08-23T12:55:24.190Z,1400
2017-08-23T13:05:39.928Z,1845
2017-08-23T13:15:54.480Z,1610
2017-08-23T13:26:09.446Z,1535
2017-08-23T13:36:24.888Z,1435
2017-08-23T13:46:38.937Z,1265
2017-08-23T13:56:53.082Z,1540
2017-08-23T14:07:08.383Z,1475
2017-08-23T14:17:23.281Z,1410
2017-08-23T14:27:37.886Z,1090
2017-08-23T14:37:52.941Z,1245
2017-08-23T14:48:07.372Z,1115
2017-08-23T14:58:22.168Z,1280
2017-08-23T15:08:37.995Z,965
2017-08-23T15:18:53.455Z,945
2017-08-23T15:29:08.246Z,920
2017-08-23T15:39:23.116Z,705
2017-08-23T15:49:37.590Z,780
2017-08-23T15:59:53.220Z,480
2017-08-23T16:10:08.823Z,395
2017-08-23T16:20:23.520Z,365
2017-08-23T16:30:37.705Z,315
2017-08-23T16:40:52.536Z,260
2017-08-23T16:51:07.993Z,215
2017-08-23T17:01:23.582Z,220
2017-08-23T17:11:39.355Z,240
2017-08-23T17:21:54.950Z,165
2017-08-23T17:32:09.755Z,135
2017-08-23T17:42:25.161Z,115
2017-08-23T17:52:40.255Z,95
2017-08-23T18:02:55.829Z,70
2017-08-23T18:13:11.317Z,45
2017-08-23T18:23:26.369Z,25
2017-08-23T18:33:40.729Z,10
2017-08-23T18:43:54.619Z,0
2017-08-23T18:54:10.025Z,0
2017-08-23T19:04:24.128Z,0
2017-08-23T19:14:39.051Z,0
2017-08-23T19:24:53.488Z,0
2017-08-23T19:35:07.400Z,0
2017-08-23T19:45:21.760Z,0
2017-08-23T19:55:36.771Z,0
2017-08-23T20:05:50.951Z,0
2017-08-23T20:16:05.971Z,0
2017-08-23T20:26:20.341Z,0
2017-08-23T20:36:36.043Z,0
2017-08-23T20:46:50.541Z,0
2017-08-23T20:57:05.552Z,0
2017-08-23T21:07:20.641Z,0
2017-08-23T21:17:34.378Z,0
2017-08-23T21:27:48.338Z,0
2017-08-23T21:38:03.856Z,0
2017-08-23T21:48:18.408Z,0
2017-08-23T21:58:32.225Z,0
2017-08-23T22:08:46.694Z,0
2017-08-23T22:19:01.356Z,0
2017-08-23T22:29:16.833Z,0
2017-08-23T22:39:30.975Z,0
2017-08-23T22:49:46.173Z,0
2017-08-23T23:00:01.839Z,0
2017-08-23T23:10:17.105Z,0
2017-08-23T23:20:31.852Z,0
2017-08-23T23:30:46.607Z,0
2017-08-23T23:41:00.701Z,0
2017-08-23T23:51:15.193Z,0
